createdAt,value
2018-11-21T00:01:23.598Z,15.97
2018-11-21T00:03:51.879Z,15.80
2018-11-21T00:06:39.206Z,15.80
2018-11-21T00:11:55.319Z,16.40
2018-11-21T00:14:42.677Z,16.33
2018-11-21T00:17:29.999Z,17.37
2018-11-21T00:22:45.148Z,16.77
2018-11-21T00:25:32.517Z,15.77
2018-11-21T00:28:19.836Z,17.07
2018-11-21T00:33:30.790Z,16.17
2018-11-21T00:36:18.149Z,15.17
2018-11-21T00:38:46.366Z,16.60
2018-11-21T00:41:33.717Z,14.97
2018-11-21T00:46:55.122Z,15.67
2018-11-21T00:49:42.445Z,16.63
2018-11-21T00:52:29.824Z,14.60
2018-11-21T00:57:50.936Z,14.63
2018-11-21T01:00:38.324Z,14.33
2018-11-21T01:05:53.437Z,15.30
2018-11-21T01:08:40.775Z,15.50
2018-11-21T01:11:09.012Z,14.40
2018-11-21T01:13:56.332Z,14.97
2018-11-21T01:16:24.577Z,14.93
2018-11-21T01:18:52.822Z,14.97
2018-11-21T01:21:40.154Z,15.17
2018-11-21T01:24:08.418Z,15.17
2018-11-21T01:26:55.733Z,15.53
2018-11-21T01:32:10.943Z,15.00
2018-11-21T01:34:39.173Z,15.50
2018-11-21T01:37:26.473Z,15.53
2018-11-21T01:39:54.755Z,15.47
2018-11-21T01:42:42.066Z,15.47
2018-11-21T01:47:57.471Z,15.33
2018-11-21T01:50:44.820Z,14.27
2018-11-21T01:53:13.075Z,16.40
2018-11-21T01:55:41.308Z,15.17
2018-11-21T01:58:28.617Z,16.40
2018-11-21T02:06:30.053Z,16.10
2018-11-21T02:09:17.348Z,16.40
2018-11-21T02:11:45.604Z,16.63
2018-11-21T02:14:32.928Z,16.43
2018-11-21T02:19:48.063Z,17.00
2018-11-21T02:22:35.390Z,15.53
2018-11-21T02:25:03.648Z,15.57
2018-11-21T02:27:31.904Z,16.80
2018-11-21T02:30:19.223Z,16.97
2018-11-21T02:32:47.497Z,16.87
2018-11-21T02:35:15.720Z,15.60
2018-11-21T02:37:43.961Z,15.80
2018-11-21T02:40:31.277Z,16.33
2018-11-21T02:43:18.653Z,15.53
2018-11-21T02:45:46.899Z,16.43
2018-11-21T02:48:34.244Z,16.23
2018-11-21T02:51:02.511Z,17.30
2018-11-21T02:53:49.841Z,17.63
2018-11-21T02:59:11.471Z,16.30
2018-11-21T03:01:58.823Z,17.13
2018-11-21T03:04:46.193Z,16.40
2018-11-21T03:10:07.608Z,18.63
2018-11-21T03:12:54.932Z,16.43
2018-11-21T03:15:42.303Z,17.33
2018-11-21T03:21:04.013Z,17.13
2018-11-21T03:23:51.344Z,17.00
2018-11-21T03:26:38.712Z,17.47
2018-11-21T03:31:59.604Z,17.17
2018-11-21T03:34:46.918Z,17.37
2018-11-21T03:37:34.282Z,17.57
2018-11-21T03:42:55.291Z,18.90
2018-11-21T03:45:23.524Z,18.13
2018-11-21T03:47:51.785Z,17.63
2018-11-21T03:50:39.088Z,17.47
2018-11-21T03:53:26.473Z,18.53
2018-11-21T03:58:47.235Z,17.93
2018-11-21T04:01:34.589Z,17.30
2018-11-21T04:04:21.963Z,17.13
2018-11-21T04:09:37.687Z,17.83
2018-11-21T04:12:25.032Z,17.50
2018-11-21T04:15:12.360Z,16.60
2018-11-21T04:20:27.753Z,17.07
2018-11-21T04:22:56.007Z,17.10
2018-11-21T04:25:43.328Z,16.47
2018-11-21T04:28:30.722Z,18.53
2018-11-21T04:33:51.886Z,15.97
2018-11-21T04:36:39.203Z,16.47
2018-11-21T04:39:28.235Z,17.17
2018-11-21T04:44:43.775Z,16.53
2018-11-21T04:47:31.107Z,18.37
2018-11-21T04:52:47.256Z,17.60
2018-11-21T04:55:34.590Z,16.63
2018-11-21T04:58:21.954Z,17.30
2018-11-21T05:06:29.571Z,17.37
2018-11-21T05:09:16.913Z,17.63
2018-11-21T05:11:45.170Z,17.83
2018-11-21T05:14:13.423Z,17.13
2018-11-21T05:16:41.650Z,16.63
2018-11-21T05:19:28.995Z,16.77
2018-11-21T05:24:50.145Z,17.93
2018-11-21T05:27:37.479Z,16.97
2018-11-21T05:30:29.509Z,17.67
2018-11-21T05:35:51.147Z,16.63
2018-11-21T05:38:38.470Z,17.40
2018-11-21T05:41:06.892Z,17.27
2018-11-21T05:43:54.203Z,18.07
2018-11-21T05:46:22.468Z,16.20
2018-11-21T05:48:50.685Z,18.07
2018-11-21T05:51:18.917Z,16.23
2018-11-21T05:54:06.259Z,16.57
2018-11-21T05:56:53.633Z,16.67
2018-11-21T06:02:14.455Z,16.37
2018-11-21T06:05:01.776Z,16.60
2018-11-21T06:07:49.138Z,17.60
2018-11-21T06:10:17.374Z,16.60
2018-11-21T06:13:04.733Z,17.30
2018-11-21T06:15:52.059Z,16.57
2018-11-21T06:18:20.355Z,18.13
2018-11-21T06:21:07.675Z,16.20
2018-11-21T06:23:55.045Z,16.77
2018-11-21T06:29:16.449Z,16.83
2018-11-21T06:32:03.759Z,18.30
2018-11-21T06:34:51.133Z,17.37
2018-11-21T06:40:31.889Z,17.93
2018-11-21T06:43:00.663Z,15.47
2018-11-21T06:45:47.972Z,17.90
2018-11-21T06:51:02.888Z,18.00
2018-11-21T06:53:51.754Z,17.03
2018-11-21T06:56:39.112Z,17.37
2018-11-21T06:59:07.407Z,18.30
2018-11-21T07:01:54.724Z,16.67
2018-11-21T07:04:42.087Z,16.97
2018-11-21T07:10:03.663Z,16.53
2018-11-21T07:12:31.904Z,16.40
2018-11-21T07:15:00.190Z,18.43
2018-11-21T07:17:28.418Z,16.47
2018-11-21T07:19:56.670Z,16.60
2018-11-21T07:22:44.003Z,16.50
2018-11-21T07:25:33.611Z,17.57
2018-11-21T07:28:01.857Z,15.77
2018-11-21T07:30:49.193Z,16.77
2018-11-21T07:33:36.551Z,16.10
2018-11-21T07:36:04.847Z,17.47
2018-11-21T07:38:52.178Z,16.53
2018-11-21T07:46:54.023Z,16.43
2018-11-21T07:49:22.268Z,15.83
2018-11-21T07:51:50.531Z,15.87
2018-11-21T07:54:37.846Z,16.90
2018-11-21T07:57:52.830Z,15.80
2018-11-21T08:01:07.468Z,17.37
2018-11-21T08:03:54.806Z,16.20
2018-11-21T08:06:42.152Z,18.23
2018-11-21T08:09:29.667Z,17.43
2018-11-21T08:14:54.479Z,18.87
2018-11-21T08:17:41.822Z,17.63
2018-11-21T08:20:29.150Z,15.93
2018-11-21T08:23:16.553Z,17.17
2018-11-21T08:26:03.931Z,18.10
2018-11-21T08:28:32.352Z,16.00
2018-11-21T08:31:19.683Z,17.67
2018-11-21T08:33:47.947Z,16.77
2018-11-21T08:36:35.272Z,16.23
2018-11-21T08:41:51.130Z,17.53
2018-11-21T08:44:19.382Z,16.17
2018-11-21T08:46:47.610Z,16.63
2018-11-21T08:49:34.948Z,16.80
2018-11-21T08:52:22.284Z,15.83
2018-11-21T08:54:50.547Z,15.63
2018-11-21T08:57:18.764Z,16.13
2018-11-21T09:00:06.113Z,15.83
2018-11-21T09:02:34.367Z,15.57
2018-11-21T09:05:02.620Z,15.30
2018-11-21T09:13:10.817Z,16.03
2018-11-21T09:15:58.176Z,15.20
2018-11-21T09:18:26.422Z,14.07
2018-11-21T09:21:13.771Z,16.03
2018-11-21T09:24:01.106Z,15.87
2018-11-21T09:29:16.478Z,15.30
2018-11-21T09:32:03.907Z,15.57
2018-11-21T09:37:25.107Z,15.03
2018-11-21T09:39:53.333Z,15.57
2018-11-21T09:42:40.690Z,15.73
2018-11-21T09:45:11.413Z,15.17
2018-11-21T09:47:39.087Z,16.10
2018-11-21T09:50:28.299Z,15.30
2018-11-21T09:53:15.638Z,16.93
2018-11-21T09:55:43.881Z,14.93
2018-11-21T09:58:31.203Z,16.50
2018-11-21T10:01:38.260Z,15.50
2018-11-21T10:12:33.050Z,16.43
2018-11-21T10:15:20.359Z,15.33
2018-11-21T10:18:07.727Z,17.30
2018-11-21T10:23:28.538Z,16.23
2018-11-21T10:26:15.839Z,17.10
2018-11-21T10:28:44.670Z,18.13
2018-11-21T10:31:31.996Z,18.33
2018-11-21T10:34:00.272Z,15.97
2018-11-21T10:36:47.580Z,17.53
2018-11-21T10:39:15.858Z,15.97
2018-11-21T10:42:03.187Z,17.03
2018-11-21T10:44:31.429Z,16.93
2018-11-21T10:46:59.642Z,18.93
2018-11-21T10:49:46.966Z,18.17
2018-11-21T10:52:34.327Z,17.00
2018-11-21T10:57:50.546Z,18.43
2018-11-21T11:00:37.363Z,17.57
2018-11-21T11:03:24.995Z,18.93
2018-11-21T11:06:12.541Z,17.50
2018-11-21T11:08:59.888Z,16.77
2018-11-21T11:14:40.069Z,18.27
2018-11-21T11:17:27.400Z,17.60
2018-11-21T11:23:01.706Z,18.53
2018-11-21T11:25:50.386Z,18.13
2018-11-21T11:31:30.562Z,17.80
2018-11-21T11:34:17.920Z,18.10
2018-11-21T11:39:51.850Z,24.83
2018-11-21T11:42:39.213Z,17.90
2018-11-21T11:51:06.876Z,18.23
2018-11-21T11:53:54.239Z,17.47
2018-11-21T11:59:34.445Z,16.97
2018-11-21T12:02:21.775Z,18.57
2018-11-21T12:05:09.122Z,17.77
2018-11-21T12:07:56.478Z,18.40
2018-11-21T12:10:43.841Z,17.23
2018-11-21T12:13:24.475Z,17.67
2018-11-21T12:16:11.818Z,18.03
2018-11-21T12:18:59.195Z,18.27
2018-11-21T12:21:46.551Z,18.30
2018-11-21T12:24:33.910Z,17.27
2018-11-21T12:27:21.224Z,17.97
2018-11-21T12:30:08.585Z,18.47
2018-11-21T12:32:55.455Z,17.87
2018-11-21T12:35:42.812Z,18.87
2018-11-21T12:38:30.157Z,18.20
2018-11-21T12:41:17.540Z,18.67
2018-11-21T12:44:04.872Z,18.17
2018-11-21T12:49:38.696Z,18.03
2018-11-21T12:52:26.075Z,18.60
2018-11-21T12:58:06.255Z,17.57
2018-11-21T13:00:53.617Z,16.07
2018-11-21T13:03:40.972Z,17.57
2018-11-21T13:06:29.655Z,19.77
2018-11-21T13:12:08.510Z,17.47
2018-11-21T13:14:55.818Z,18.57
2018-11-21T13:17:43.179Z,16.27
2018-11-21T13:20:30.555Z,18.63
2018-11-21T13:23:17.875Z,17.87
2018-11-21T13:26:05.224Z,15.90
2018-11-21T13:31:29.367Z,17.17
2018-11-21T13:34:16.672Z,16.80
2018-11-21T13:37:04.039Z,19.27
2018-11-21T13:39:51.364Z,23.85
2018-11-21T13:42:38.732Z,16.60
2018-11-21T13:45:26.831Z,15.13
2018-11-21T13:48:14.202Z,16.80
2018-11-21T13:51:01.545Z,16.03
2018-11-21T13:56:16.487Z,16.43
2018-11-21T13:59:03.842Z,15.57
2018-11-21T14:01:51.176Z,16.13
2018-11-21T14:04:19.445Z,25.35
2018-11-21T14:07:06.782Z,16.37
2018-11-21T14:09:54.141Z,14.33
2018-11-21T14:12:22.392Z,15.30
2018-11-21T14:14:50.624Z,16.43
2018-11-21T14:17:18.868Z,15.47
2018-11-21T14:19:47.197Z,15.53
2018-11-21T14:22:34.525Z,16.47
2018-11-21T14:25:21.891Z,16.43
2018-11-21T14:30:42.888Z,15.40
2018-11-21T14:33:11.100Z,16.47
2018-11-21T14:35:58.438Z,15.53
2018-11-21T14:38:26.665Z,15.90
2018-11-21T14:41:14.017Z,16.13
2018-11-21T14:43:42.269Z,16.93
2018-11-21T14:46:29.603Z,15.10
2018-11-21T14:49:16.964Z,15.37
2018-11-21T14:51:45.242Z,18.13
2018-11-21T14:54:13.494Z,16.17
2018-11-21T14:56:41.755Z,15.70
2018-11-21T14:59:29.066Z,16.13
2018-11-21T15:01:57.344Z,15.47
2018-11-21T15:04:44.660Z,16.47
2018-11-21T15:12:45.898Z,17.00
2018-11-21T15:15:18.802Z,16.23
2018-11-21T15:18:06.142Z,18.17
2018-11-21T15:20:34.388Z,16.80
2018-11-21T15:23:02.647Z,16.07
2018-11-21T15:25:30.916Z,17.00
2018-11-21T15:27:59.167Z,16.60
2018-11-21T15:30:28.943Z,17.70
2018-11-21T15:32:57.186Z,17.33
2018-11-21T15:35:44.547Z,16.13
2018-11-21T15:38:12.814Z,16.57
2018-11-21T15:40:46.910Z,16.60
2018-11-21T15:43:28.383Z,18.40
2018-11-21T15:46:15.732Z,15.07
2018-11-21T15:51:30.936Z,16.33
2018-11-21T15:54:18.275Z,16.67
2018-11-21T15:57:05.609Z,18.03
2018-11-21T15:59:33.873Z,17.40
2018-11-21T16:02:21.215Z,15.97
2018-11-21T16:07:37.116Z,17.03
2018-11-21T16:10:26.758Z,16.07
2018-11-21T16:13:14.105Z,17.40
2018-11-21T16:16:01.788Z,16.97
2018-11-21T16:18:49.136Z,18.03
2018-11-21T16:24:04.843Z,18.73
2018-11-21T16:26:52.177Z,16.43
2018-11-21T16:29:20.417Z,17.40
2018-11-21T16:32:07.767Z,17.23
2018-11-21T16:37:22.977Z,16.43
2018-11-21T16:40:10.300Z,17.03
2018-11-21T16:42:39.002Z,17.80
2018-11-21T16:45:27.821Z,17.23
2018-11-21T16:50:43.481Z,17.93
2018-11-21T16:53:35.053Z,16.13
2018-11-21T16:56:18.175Z,17.33
2018-11-21T17:01:33.869Z,17.77
2018-11-21T17:04:21.249Z,17.00
2018-11-21T17:07:08.593Z,17.80
2018-11-21T17:12:23.628Z,17.97
2018-11-21T17:14:51.862Z,17.00
2018-11-21T17:17:39.183Z,18.00
2018-11-21T17:20:29.405Z,17.40
2018-11-21T17:22:58.626Z,18.50
2018-11-21T17:25:45.958Z,18.17
2018-11-21T17:28:33.290Z,16.80
2018-11-21T17:33:45.614Z,18.33
2018-11-21T17:36:31.804Z,17.67
2018-11-21T17:39:19.218Z,16.97
2018-11-21T17:41:47.467Z,17.27
2018-11-21T17:44:34.807Z,17.50
2018-11-21T17:47:03.038Z,18.53
2018-11-21T17:49:50.371Z,18.43
2018-11-21T17:55:31.004Z,18.13
2018-11-21T17:58:18.352Z,18.57
2018-11-21T18:00:46.630Z,17.57
2018-11-21T18:03:33.951Z,19.30
2018-11-21T18:06:02.219Z,17.97
2018-11-21T18:08:30.547Z,18.27
2018-11-21T18:10:58.733Z,19.10
2018-11-21T18:13:46.051Z,17.67
2018-11-21T18:16:14.308Z,19.37
2018-11-21T18:19:01.651Z,17.97
2018-11-21T18:24:17.313Z,19.73
2018-11-21T18:26:45.544Z,19.07
2018-11-21T18:29:32.861Z,19.70
2018-11-21T18:32:20.260Z,18.73
2018-11-21T18:37:41.384Z,20.33
2018-11-21T18:40:30.200Z,20.10
2018-11-21T18:43:17.528Z,20.27
2018-11-21T18:48:38.294Z,19.23
2018-11-21T18:51:25.647Z,19.90
2018-11-21T18:54:12.995Z,18.67
2018-11-21T18:57:20.064Z,20.73
2018-11-21T19:00:10.419Z,19.27
2018-11-21T19:02:57.794Z,19.93
2018-11-21T19:08:19.480Z,19.60
2018-11-21T19:11:06.815Z,20.20
2018-11-21T19:13:54.190Z,18.67
2018-11-21T19:19:15.406Z,19.67
2018-11-21T19:21:44.041Z,20.73
2018-11-21T19:24:12.296Z,21.10
2018-11-21T19:26:40.499Z,20.37
2018-11-21T19:29:08.736Z,19.57
2018-11-21T19:31:56.108Z,21.47
2018-11-21T19:34:43.389Z,20.60
2018-11-21T19:40:07.520Z,20.50
2018-11-21T19:42:54.855Z,20.63
2018-11-21T19:45:42.241Z,19.23
2018-11-21T19:48:10.483Z,20.80
2018-11-21T19:50:38.729Z,21.27
2018-11-21T19:53:06.966Z,20.27
2018-11-21T19:55:54.288Z,20.23
2018-11-21T19:58:41.629Z,21.40
2018-11-21T20:03:56.480Z,20.77
2018-11-21T20:06:24.732Z,20.27
2018-11-21T20:09:12.063Z,20.83
2018-11-21T20:11:40.566Z,21.30
2018-11-21T20:14:27.890Z,21.90
2018-11-21T20:19:43.348Z,20.67
2018-11-21T20:22:30.456Z,22.33
2018-11-21T20:24:58.750Z,21.07
2018-11-21T20:27:27.003Z,21.50
2018-11-21T20:29:55.359Z,22.73
2018-11-21T20:32:42.564Z,21.30
2018-11-21T20:35:11.657Z,21.27
2018-11-21T20:37:40.522Z,22.27
2018-11-21T20:40:36.678Z,21.57
2018-11-21T20:43:24.193Z,20.73
2018-11-21T20:45:52.422Z,20.10
2018-11-21T20:48:20.653Z,19.70
2018-11-21T20:50:48.897Z,21.37
2018-11-21T20:53:36.224Z,21.00
2018-11-21T20:56:23.679Z,21.60
2018-11-21T20:58:51.924Z,22.87
2018-11-21T21:01:39.283Z,22.73
2018-11-21T21:04:26.631Z,21.30
2018-11-21T21:06:55.091Z,22.80
2018-11-21T21:09:23.331Z,23.10
2018-11-21T21:11:51.595Z,22.77
2018-11-21T21:14:19.995Z,22.53
2018-11-21T21:17:07.347Z,23.03
2018-11-21T21:19:54.680Z,21.20
2018-11-21T21:25:12.438Z,21.67
2018-11-21T21:27:59.748Z,21.40
2018-11-21T21:30:47.147Z,22.53
2018-11-21T21:33:34.454Z,21.50
2018-11-21T21:36:02.740Z,21.90
2018-11-21T21:38:31.014Z,22.37
2018-11-21T21:40:59.322Z,20.63
2018-11-21T21:43:46.630Z,20.57
2018-11-21T21:46:33.982Z,20.43
2018-11-21T21:49:02.259Z,19.70
2018-11-21T21:51:30.517Z,19.60
2018-11-21T21:53:58.811Z,20.13
2018-11-21T21:56:46.222Z,20.90
2018-11-21T21:59:33.497Z,21.80
2018-11-21T22:04:48.371Z,20.93
2018-11-21T22:07:16.620Z,20.83
2018-11-21T22:10:04.038Z,20.20
2018-11-21T22:12:51.394Z,21.10
2018-11-21T22:18:13.616Z,21.27
2018-11-21T22:21:00.962Z,19.83
2018-11-21T22:23:29.254Z,21.03
2018-11-21T22:25:57.587Z,20.43
2018-11-21T22:28:44.909Z,21.70
2018-11-21T22:31:13.174Z,19.37
2018-11-21T22:33:41.378Z,21.37
2018-11-21T22:36:28.709Z,20.47
2018-11-21T22:38:56.989Z,19.77
2018-11-21T22:41:44.332Z,19.70
2018-11-21T22:44:12.586Z,21.77
2018-11-21T22:46:40.840Z,19.63
2018-11-21T22:49:28.163Z,21.23
2018-11-21T22:52:15.530Z,19.53
2018-11-21T22:54:43.774Z,19.47
2018-11-21T22:57:31.108Z,20.13
2018-11-21T22:59:59.543Z,19.37
2018-11-21T23:02:27.791Z,19.90
2018-11-21T23:05:15.134Z,19.50
2018-11-21T23:10:30.995Z,20.10
2018-11-21T23:12:59.241Z,19.73
2018-11-21T23:15:27.517Z,19.27
2018-11-21T23:18:14.869Z,19.37
2018-11-21T23:21:02.202Z,19.37
2018-11-21T23:26:13.243Z,18.97
2018-11-21T23:28:41.486Z,19.13
2018-11-21T23:31:28.812Z,19.37
2018-11-21T23:34:16.189Z,20.47
2018-11-21T23:39:31.334Z,18.87
2018-11-21T23:42:18.697Z,17.93
2018-11-21T23:44:46.934Z,19.70
2018-11-21T23:47:34.292Z,19.73
2018-11-21T23:52:55.961Z,19.00
2018-11-21T23:55:24.175Z,19.73
2018-11-21T23:57:52.422Z,18.30
